sensor_id;sensor_type;location;lat;lon;timestamp;pressure;altitude;pressure_sealevel;temperature;humidity
56414;BME280;42318;48.452;19.526;2023-07-30T00:03:52;97868.44;;;22.40;59.70
56414;BME280;42318;48.452;19.526;2023-07-30T00:08:53;97870.34;;;22.39;59.69
56414;BME280;42318;48.452;19.526;2023-07-30T00:13:53;97869.53;;;22.39;60.11
56414;BME280;42318;48.452;19.526;2023-07-30T00:18:54;97870.34;;;22.39;59.76
56414;BME280;42318;48.452;19.526;2023-07-30T00:23:55;97869.53;;;22.39;59.59
56414;BME280;42318;48.452;19.526;2023-07-30T00:28:56;97871.16;;;22.40;59.70
56414;BME280;42318;48.452;19.526;2023-07-30T00:33:56;97886.72;;;22.39;59.91
56414;BME280;42318;48.452;19.526;2023-07-30T00:38:57;97888.63;;;22.39;59.91
56414;BME280;42318;48.452;19.526;2023-07-30T00:43:58;97888.63;;;22.39;60.00
56414;BME280;42318;48.452;19.526;2023-07-30T00:48:59;97884.00;;;22.39;59.97
56414;BME280;42318;48.452;19.526;2023-07-30T00:54:00;97881.28;;;22.39;59.87
56414;BME280;42318;48.452;19.526;2023-07-30T00:59:01;97866.81;;;22.39;59.74
56414;BME280;42318;48.452;19.526;2023-07-30T01:04:02;97864.06;;;22.39;59.73
56414;BME280;42318;48.452;19.526;2023-07-30T01:09:03;97856.41;;;22.41;59.68
56414;BME280;42318;48.452;19.526;2023-07-30T01:14:05;97864.88;;;22.39;59.69
56414;BME280;42318;48.452;19.526;2023-07-30T01:19:06;97870.34;;;22.39;59.55
56414;BME280;42318;48.452;19.526;2023-07-30T01:24:07;97849.38;;;22.35;60.24
56414;BME280;42318;48.452;19.526;2023-07-30T01:29:22;97856.69;;;22.39;59.84
56414;BME280;42318;48.452;19.526;2023-07-30T01:34:24;97850.72;;;22.37;59.53
56414;BME280;42318;48.452;19.526;2023-07-30T01:39:27;97847.47;;;22.35;59.59
56414;BME280;42318;48.452;19.526;2023-07-30T01:44:28;97835.72;;;22.35;59.82
56414;BME280;42318;48.452;19.526;2023-07-30T01:49:29;97837.13;;;22.32;59.36
56414;BME280;42318;48.452;19.526;2023-07-30T01:54:30;97825.16;;;22.28;59.49
56414;BME280;42318;48.452;19.526;2023-07-30T01:59:31;97818.88;;;22.28;59.62
56414;BME280;42318;48.452;19.526;2023-07-30T02:04:31;97836.88;;;22.29;59.58
56414;BME280;42318;48.452;19.526;2023-07-30T02:09:33;97824.34;;;22.28;59.33
56414;BME280;42318;48.452;19.526;2023-07-30T02:14:33;97828.16;;;22.27;59.41
56414;BME280;42318;48.452;19.526;2023-07-30T02:19:34;97825.44;;;22.27;59.57
56414;BME280;42318;48.452;19.526;2023-07-30T02:24:35;97817.53;;;22.25;59.57
56414;BME280;42318;48.452;19.526;2023-07-30T02:29:36;97817.53;;;22.25;59.77
56414;BME280;42318;48.452;19.526;2023-07-30T02:34:36;97832.28;;;22.24;59.38
56414;BME280;42318;48.452;19.526;2023-07-30T02:39:37;97833.91;;;22.25;59.66
56414;BME280;42318;48.452;19.526;2023-07-30T02:44:38;97850.56;;;22.23;59.47
56414;BME280;42318;48.452;19.526;2023-07-30T02:49:39;97847.03;;;22.23;59.58
56414;BME280;42318;48.452;19.526;2023-07-30T02:54:39;97843.47;;;22.22;59.53
56414;BME280;42318;48.452;19.526;2023-07-30T02:59:40;97843.78;;;22.21;59.24
56414;BME280;42318;48.452;19.526;2023-07-30T03:04:41;97844.59;;;22.21;59.62
56414;BME280;42318;48.452;19.526;2023-07-30T03:09:42;97844.06;;;22.19;59.48
56414;BME280;42318;48.452;19.526;2023-07-30T03:14:43;97858.50;;;22.20;59.68
56414;BME280;42318;48.452;19.526;2023-07-30T03:19:43;97854.16;;;22.19;59.62
56414;BME280;42318;48.452;19.526;2023-07-30T03:24:46;97849.50;;;22.19;59.65
56414;BME280;42318;48.452;19.526;2023-07-30T03:29:48;97845.16;;;22.18;59.27
56414;BME280;42318;48.452;19.526;2023-07-30T03:34:49;97840.28;;;22.15;59.49
56414;BME280;42318;48.452;19.526;2023-07-30T03:39:49;97824.44;;;22.17;59.61
56414;BME280;42318;48.452;19.526;2023-07-30T03:44:50;97832.59;;;22.17;59.71
56414;BME280;42318;48.452;19.526;2023-07-30T03:49:51;97828.25;;;22.16;59.29
56414;BME280;42318;48.452;19.526;2023-07-30T03:54:52;97809.72;;;22.13;59.77
56414;BME280;42318;48.452;19.526;2023-07-30T03:59:52;97828.25;;;22.16;59.71
56414;BME280;42318;48.452;19.526;2023-07-30T04:04:53;97819.53;;;22.14;59.25
56414;BME280;42318;48.452;19.526;2023-07-30T04:09:54;97837.81;;;22.14;59.68
56414;BME280;42318;48.452;19.526;2023-07-30T04:14:55;97847.63;;;22.15;59.47
56414;BME280;42318;48.452;19.526;2023-07-30T04:19:55;97856.09;;;22.13;59.60
56414;BME280;42318;48.452;19.526;2023-07-30T04:24:56;97868.94;;;22.13;59.61
56414;BME280;42318;48.452;19.526;2023-07-30T04:29:57;97871.38;;;22.14;59.71
56414;BME280;42318;48.452;19.526;2023-07-30T04:34:58;97876.31;;;22.12;59.58
56414;BME280;42318;48.452;19.526;2023-07-30T04:39:58;97883.41;;;22.13;59.63
56414;BME280;42318;48.452;19.526;2023-07-30T04:44:59;97882.88;;;22.11;59.62
56414;BME280;42318;48.452;19.526;2023-07-30T04:50:00;97887.22;;;22.12;59.59
56414;BME280;42318;48.452;19.526;2023-07-30T04:55:01;97885.84;;;22.10;59.70
56414;BME280;42318;48.452;19.526;2023-07-30T05:00:02;97882.88;;;22.11;59.25
56414;BME280;42318;48.452;19.526;2023-07-30T05:05:03;97886.66;;;22.10;59.48
56414;BME280;42318;48.452;19.526;2023-07-30T05:10:05;97888.31;;;22.11;59.40
56414;BME280;42318;48.452;19.526;2023-07-30T05:15:07;97896.50;;;22.11;59.71
56414;BME280;42318;48.452;19.526;2023-07-30T05:20:08;97893.78;;;22.11;59.54
56414;BME280;42318;48.452;19.526;2023-07-30T05:25:09;97894.84;;;22.10;59.56
56414;BME280;42318;48.452;19.526;2023-07-30T05:30:10;97895.94;;;22.09;59.21
56414;BME280;42318;48.452;19.526;2023-07-30T05:35:11;97900.31;;;22.10;59.67
56414;BME280;42318;48.452;19.526;2023-07-30T05:40:12;97904.13;;;22.09;59.46
56414;BME280;42318;48.452;19.526;2023-07-30T05:45:13;97906.84;;;22.09;59.40
56414;BME280;42318;48.452;19.526;2023-07-30T05:50:14;97892.41;;;22.09;59.09
56414;BME280;42318;48.452;19.526;2023-07-30T05:55:14;97903.31;;;22.09;59.46
56414;BME280;42318;48.452;19.526;2023-07-30T06:00:15;97895.13;;;22.09;59.44
56414;BME280;42318;48.452;19.526;2023-07-30T06:05:17;97881.78;;;22.07;59.25
56414;BME280;42318;48.452;19.526;2023-07-30T06:10:17;97883.13;;;22.10;59.44
56414;BME280;42318;48.452;19.526;2023-07-30T06:15:18;97878.47;;;22.10;59.60
56414;BME280;42318;48.452;19.526;2023-07-30T06:20:19;97882.31;;;22.09;59.44
56414;BME280;42318;48.452;19.526;2023-07-30T06:25:20;97878.47;;;22.10;59.49
56414;BME280;42318;48.452;19.526;2023-07-30T06:30:21;97874.94;;;22.10;59.33
56414;BME280;42318;48.452;19.526;2023-07-30T06:35:21;97878.47;;;22.10;59.25
56414;BME280;42318;48.452;19.526;2023-07-30T06:40:22;97875.75;;;22.10;59.47
56414;BME280;42318;48.452;19.526;2023-07-30T06:45:24;97877.66;;;22.10;59.20
56414;BME280;42318;48.452;19.526;2023-07-30T06:50:24;97867.56;;;22.10;59.19
56414;BME280;42318;48.452;19.526;2023-07-30T06:55:28;97870.03;;;22.12;59.39
56414;BME280;42318;48.452;19.526;2023-07-30T07:00:29;97860.19;;;22.11;59.05
56414;BME280;42318;48.452;19.526;2023-07-30T07:05:30;97854.72;;;22.11;59.20
56414;BME280;42318;48.452;19.526;2023-07-30T07:10:31;97862.09;;;22.10;59.34
56414;BME280;42318;48.452;19.526;2023-07-30T07:15:31;97862.09;;;22.10;59.04
56414;BME280;42318;48.452;19.526;2023-07-30T07:20:32;97860.19;;;22.11;59.55
56414;BME280;42318;48.452;19.526;2023-07-30T07:25:33;97867.56;;;22.10;59.12
56414;BME280;42318;48.452;19.526;2023-07-30T07:30:35;97869.22;;;22.11;59.43
56414;BME280;42318;48.452;19.526;2023-07-30T07:35:37;97868.38;;;22.11;59.47
56414;BME280;42318;48.452;19.526;2023-07-30T07:40:38;97862.91;;;22.11;59.09
56414;BME280;42318;48.452;19.526;2023-07-30T07:45:42;97862.69;;;22.07;59.04
56414;BME280;42318;48.452;19.526;2023-07-30T07:50:42;97859.38;;;22.10;59.44
56414;BME280;42318;48.452;19.526;2023-07-30T07:55:43;97875.75;;;22.10;59.34
56414;BME280;42318;48.452;19.526;2023-07-30T08:00:44;97875.22;;;22.08;59.13
56414;BME280;42318;48.452;19.526;2023-07-30T08:05:45;97888.56;;;22.10;59.54
56414;BME280;42318;48.452;19.526;2023-07-30T08:10:45;97883.94;;;22.10;59.36
56414;BME280;42318;48.452;19.526;2023-07-30T08:15:48;97894.03;;;22.10;59.27
56414;BME280;42318;48.452;19.526;2023-07-30T08:20:49;97889.38;;;22.10;59.44
56414;BME280;42318;48.452;19.526;2023-07-30T08:25:50;97896.50;;;22.11;59.09
56414;BME280;42318;48.452;19.526;2023-07-30T08:30:51;97902.22;;;22.10;59.16
56414;BME280;42318;48.452;19.526;2023-07-30T08:35:55;97897.56;;;22.10;59.13
56414;BME280;42318;48.452;19.526;2023-07-30T08:40:56;97916.66;;;22.10;59.49
56414;BME280;42318;48.452;19.526;2023-07-30T08:45:57;97924.59;;;22.12;59.49
56414;BME280;42318;48.452;19.526;2023-07-30T08:51:00;97943.97;;;22.10;59.17
56414;BME280;42318;48.452;19.526;2023-07-30T08:56:01;97952.94;;;22.11;59.35
56414;BME280;42318;48.452;19.526;2023-07-30T09:01:08;97967.69;;;22.10;59.15
56414;BME280;42318;48.452;19.526;2023-07-30T09:06:10;97970.41;;;22.10;59.21
56414;BME280;42318;48.452;19.526;2023-07-30T09:11:11;97971.25;;;22.10;59.34
56414;BME280;42318;48.452;19.526;2023-07-30T09:16:14;97969.59;;;22.09;59.44
56414;BME280;42318;48.452;19.526;2023-07-30T09:21:15;97975.34;;;22.08;59.57
56414;BME280;42318;48.452;19.526;2023-07-30T09:26:15;97972.34;;;22.09;59.48
56414;BME280;42318;48.452;19.526;2023-07-30T09:31:16;97975.06;;;22.09;59.14
56414;BME280;42318;48.452;19.526;2023-07-30T09:36:18;97977.78;;;22.09;59.49
56414;BME280;42318;48.452;19.526;2023-07-30T09:41:20;97982.44;;;22.09;59.59
56414;BME280;42318;48.452;19.526;2023-07-30T09:46:21;97978.59;;;22.10;59.72
56414;BME280;42318;48.452;19.526;2023-07-30T09:51:21;97966.88;;;22.09;59.91
56414;BME280;42318;48.452;19.526;2023-07-30T09:56:22;97971.25;;;22.10;59.64
56414;BME280;42318;48.452;19.526;2023-07-30T10:01:24;97973.16;;;22.10;59.49
56414;BME280;42318;48.452;19.526;2023-07-30T10:06:29;97965.78;;;22.10;60.41
56414;BME280;42318;48.452;19.526;2023-07-30T10:11:32;97968.50;;;22.10;60.92
56414;BME280;42318;48.452;19.526;2023-07-30T10:16:33;97975.06;;;22.14;60.72
56414;BME280;42318;48.452;19.526;2023-07-30T10:21:34;97976.41;;;22.17;62.61
56414;BME280;42318;48.452;19.526;2023-07-30T10:26:35;97966.84;;;22.19;63.47
56414;BME280;42318;48.452;19.526;2023-07-30T10:31:41;97970.09;;;22.21;64.09
56414;BME280;42318;48.452;19.526;2023-07-30T10:36:44;97962.44;;;22.23;63.43
56414;BME280;42318;48.452;19.526;2023-07-30T10:41:48;97961.34;;;22.24;63.02
56414;BME280;42318;48.452;19.526;2023-07-30T10:46:50;97960.81;;;22.22;62.86
56414;BME280;42318;48.452;19.526;2023-07-30T10:51:52;97953.19;;;22.19;62.47
56414;BME280;42318;48.452;19.526;2023-07-30T10:56:53;97950.19;;;22.21;62.36
56414;BME280;42318;48.452;19.526;2023-07-30T11:01:54;97955.66;;;22.21;62.28
56414;BME280;42318;48.452;19.526;2023-07-30T11:06:55;97954.84;;;22.20;62.32
56414;BME280;42318;48.452;19.526;2023-07-30T11:11:56;97943.91;;;22.20;61.96
56414;BME280;42318;48.452;19.526;2023-07-30T11:16:59;97939.84;;;22.18;61.88
56414;BME280;42318;48.452;19.526;2023-07-30T11:22:00;97939.03;;;22.17;61.70
56414;BME280;42318;48.452;19.526;2023-07-30T11:27:02;97940.09;;;22.21;61.88
56414;BME280;42318;48.452;19.526;2023-07-30T11:32:03;97936.28;;;22.17;61.56
56414;BME280;42318;48.452;19.526;2023-07-30T11:37:05;97931.38;;;22.19;61.17
56414;BME280;42318;48.452;19.526;2023-07-30T11:42:06;97932.47;;;22.18;61.59
56414;BME280;42318;48.452;19.526;2023-07-30T11:47:07;97933.56;;;22.17;61.63
56414;BME280;42318;48.452;19.526;2023-07-30T11:52:10;97942.56;;;22.18;61.50
56414;BME280;42318;48.452;19.526;2023-07-30T11:57:11;97935.19;;;22.18;61.38
56414;BME280;42318;48.452;19.526;2023-07-30T12:02:17;97939.03;;;22.17;61.38
56414;BME280;42318;48.452;19.526;2023-07-30T12:07:22;97934.38;;;22.18;61.05
56414;BME280;42318;48.452;19.526;2023-07-30T12:12:25;97939.84;;;22.18;61.07
56414;BME280;42318;48.452;19.526;2023-07-30T12:17:27;97926.19;;;22.18;61.05
56414;BME280;42318;48.452;19.526;2023-07-30T12:22:28;97931.66;;;22.18;61.30
56414;BME280;42318;48.452;19.526;2023-07-30T12:27:29;97923.75;;;22.16;60.96
56414;BME280;42318;48.452;19.526;2023-07-30T12:32:29;97919.13;;;22.17;61.33
56414;BME280;42318;48.452;19.526;2023-07-30T12:37:30;97905.75;;;22.15;61.30
56414;BME280;42318;48.452;19.526;2023-07-30T12:42:33;97906.56;;;22.16;61.10
56414;BME280;42318;48.452;19.526;2023-07-30T12:47:34;97914.75;;;22.16;61.37
56414;BME280;42318;48.452;19.526;2023-07-30T12:52:39;97893.22;;;22.14;61.47
56414;BME280;42318;48.452;19.526;2023-07-30T12:57:40;97897.56;;;22.15;61.44
56414;BME280;42318;48.452;19.526;2023-07-30T13:02:40;97883.94;;;22.15;61.49
56414;BME280;42318;48.452;19.526;2023-07-30T13:07:41;97886.09;;;22.18;61.32
56414;BME280;42318;48.452;19.526;2023-07-30T13:12:42;97876.50;;;22.21;61.38
56414;BME280;42318;48.452;19.526;2023-07-30T13:17:43;97861.00;;;22.16;61.58
56414;BME280;42318;48.452;19.526;2023-07-30T13:22:46;97862.06;;;22.20;61.62
56414;BME280;42318;48.452;19.526;2023-07-30T13:27:46;97854.97;;;22.19;61.85
56414;BME280;42318;48.452;19.526;2023-07-30T13:32:47;97850.31;;;22.20;62.02
56414;BME280;42318;48.452;19.526;2023-07-30T13:37:48;97845.69;;;22.20;61.46
56414;BME280;42318;48.452;19.526;2023-07-30T13:42:49;97842.94;;;22.20;61.36
56414;BME280;42318;48.452;19.526;2023-07-30T13:47:50;97841.56;;;22.23;61.38
56414;BME280;42318;48.452;19.526;2023-07-30T13:52:51;97834.19;;;22.23;61.74
56414;BME280;42318;48.452;19.526;2023-07-30T13:57:51;97831.19;;;22.25;61.48
56414;BME280;42318;48.452;19.526;2023-07-30T14:02:52;97834.44;;;22.27;61.69
56414;BME280;42318;48.452;19.526;2023-07-30T14:07:56;97831.41;;;22.29;61.72
56414;BME280;42318;48.452;19.526;2023-07-30T14:12:57;97831.94;;;22.31;61.47
56414;BME280;42318;48.452;19.526;2023-07-30T14:17:58;97811.75;;;22.32;61.16
56414;BME280;42318;48.452;19.526;2023-07-30T14:22:58;97810.34;;;22.34;61.27
56414;BME280;42318;48.452;19.526;2023-07-30T14:28:02;97795.38;;;22.32;61.15
56414;BME280;42318;48.452;19.526;2023-07-30T14:33:03;97800.78;;;22.37;61.26
56414;BME280;42318;48.452;19.526;2023-07-30T14:38:04;97787.41;;;22.35;60.73
56414;BME280;42318;48.452;19.526;2023-07-30T14:43:05;97786.59;;;22.35;60.73
56414;BME280;42318;48.452;19.526;2023-07-30T14:48:06;97765.63;;;22.30;61.22
56414;BME280;42318;48.452;19.526;2023-07-30T14:53:07;97768.06;;;22.32;61.10
56414;BME280;42318;48.452;19.526;2023-07-30T14:58:07;97763.19;;;22.29;61.02
56414;BME280;42318;48.452;19.526;2023-07-30T15:03:09;97757.44;;;22.30;60.94
56414;BME280;42318;48.452;19.526;2023-07-30T15:08:10;97755.53;;;22.31;60.79
56414;BME280;42318;48.452;19.526;2023-07-30T15:13:11;97762.91;;;22.30;60.86
56414;BME280;42318;48.452;19.526;2023-07-30T15:18:11;97751.19;;;22.30;60.89
56414;BME280;42318;48.452;19.526;2023-07-30T15:23:12;97749.56;;;22.29;60.68
56414;BME280;42318;48.452;19.526;2023-07-30T15:28:13;97745.19;;;22.28;60.47
56414;BME280;42318;48.452;19.526;2023-07-30T15:33:14;97756.94;;;22.28;60.52
56414;BME280;42318;48.452;19.526;2023-07-30T15:38:15;97751.75;;;22.27;60.75
56414;BME280;42318;48.452;19.526;2023-07-30T15:43:16;97736.78;;;22.24;60.70
56414;BME280;42318;48.452;19.526;2023-07-30T15:48:17;97739.22;;;22.25;60.78
56414;BME280;42318;48.452;19.526;2023-07-30T15:53:18;97732.94;;;22.25;60.59
56414;BME280;42318;48.452;19.526;2023-07-30T15:58:19;97744.66;;;22.25;60.38
56414;BME280;42318;48.452;19.526;2023-07-30T16:03:20;97755.59;;;22.25;60.93
56414;BME280;42318;48.452;19.526;2023-07-30T16:08:20;97743.63;;;22.21;60.83
56414;BME280;42318;48.452;19.526;2023-07-30T16:13:21;97745.78;;;22.24;60.49
56414;BME280;42318;48.452;19.526;2023-07-30T16:18:22;97755.59;;;22.25;60.40
56414;BME280;42318;48.452;19.526;2023-07-30T16:23:23;97768.69;;;22.23;60.41
56414;BME280;42318;48.452;19.526;2023-07-30T16:28:23;97762.44;;;22.23;60.75
56414;BME280;42318;48.452;19.526;2023-07-30T16:33:24;97768.69;;;22.23;60.75
56414;BME280;42318;48.452;19.526;2023-07-30T16:38:25;97765.97;;;22.23;60.59
56414;BME280;42318;48.452;19.526;2023-07-30T16:43:26;97767.06;;;22.22;60.75
56414;BME280;42318;48.452;19.526;2023-07-30T16:48:27;97759.72;;;22.23;60.93
56414;BME280;42318;48.452;19.526;2023-07-30T16:53:27;97769.81;;;22.22;60.42
56414;BME280;42318;48.452;19.526;2023-07-30T16:58:28;97777.19;;;22.22;60.55
56414;BME280;42318;48.452;19.526;2023-07-30T17:03:35;97779.91;;;22.22;60.58
56414;BME280;42318;48.452;19.526;2023-07-30T17:08:37;97781.81;;;22.21;60.40
56414;BME280;42318;48.452;19.526;2023-07-30T17:13:38;97778.28;;;22.21;60.72
56414;BME280;42318;48.452;19.526;2023-07-30T17:18:38;97784.03;;;22.19;60.91
56414;BME280;42318;48.452;19.526;2023-07-30T17:23:39;97786.47;;;22.21;60.62
56414;BME280;42318;48.452;19.526;2023-07-30T17:28:40;97796.56;;;22.20;60.64
56414;BME280;42318;48.452;19.526;2023-07-30T17:33:41;97802.03;;;22.20;60.74
56414;BME280;42318;48.452;19.526;2023-07-30T17:38:42;97802.03;;;22.20;60.80
56414;BME280;42318;48.452;19.526;2023-07-30T17:43:42;97806.66;;;22.20;60.48
56414;BME280;42318;48.452;19.526;2023-07-30T17:48:44;97810.50;;;22.19;60.56
56414;BME280;42318;48.452;19.526;2023-07-30T17:53:44;97799.59;;;22.19;60.77
56414;BME280;42318;48.452;19.526;2023-07-30T17:58:46;97808.59;;;22.19;60.33
56414;BME280;42318;48.452;19.526;2023-07-30T18:03:46;97818.69;;;22.19;60.47
56414;BME280;42318;48.452;19.526;2023-07-30T18:08:47;97820.59;;;22.18;60.38
56414;BME280;42318;48.452;19.526;2023-07-30T18:13:48;97835.06;;;22.19;60.42
56414;BME280;42318;48.452;19.526;2023-07-30T18:18:48;97851.72;;;22.17;60.35
56414;BME280;42318;48.452;19.526;2023-07-30T18:23:51;97845.19;;;22.13;60.45
56414;BME280;42318;48.452;19.526;2023-07-30T18:28:52;97855.53;;;22.16;60.36
56414;BME280;42318;48.452;19.526;2023-07-30T18:33:52;97861.00;;;22.16;60.57
56414;BME280;42318;48.452;19.526;2023-07-30T18:38:53;97877.38;;;22.16;60.67
56414;BME280;42318;48.452;19.526;2023-07-30T18:43:54;97884.75;;;22.16;60.80
56414;BME280;42318;48.452;19.526;2023-07-30T18:48:55;97894.84;;;22.15;60.21
56414;BME280;42318;48.452;19.526;2023-07-30T18:53:56;97885.03;;;22.14;60.54
56414;BME280;42318;48.452;19.526;2023-07-30T18:58:57;97897.56;;;22.15;60.28
56414;BME280;42318;48.452;19.526;2023-07-30T19:03:58;97894.31;;;22.13;60.36
56414;BME280;42318;48.452;19.526;2023-07-30T19:08:58;97896.75;;;22.15;60.21
56414;BME280;42318;48.452;19.526;2023-07-30T19:13:59;97896.75;;;22.15;60.63
56414;BME280;42318;48.452;19.526;2023-07-30T19:19:00;97894.03;;;22.15;60.58
56414;BME280;42318;48.452;19.526;2023-07-30T19:24:01;97886.13;;;22.13;60.13
56414;BME280;42318;48.452;19.526;2023-07-30T19:29:02;97897.03;;;22.13;60.32
56414;BME280;42318;48.452;19.526;2023-07-30T19:34:07;97894.31;;;22.13;60.27
56414;BME280;42318;48.452;19.526;2023-07-30T19:39:09;97902.50;;;22.13;60.16
56414;BME280;42318;48.452;19.526;2023-07-30T19:44:10;97906.31;;;22.12;60.60
56414;BME280;42318;48.452;19.526;2023-07-30T19:49:11;97903.03;;;22.10;60.13
56414;BME280;42318;48.452;19.526;2023-07-30T19:54:12;97908.22;;;22.12;60.42
56414;BME280;42318;48.452;19.526;2023-07-30T19:59:13;97918.34;;;22.11;60.43
56414;BME280;42318;48.452;19.526;2023-07-30T20:04:14;97931.97;;;22.11;60.46
56414;BME280;42318;48.452;19.526;2023-07-30T20:09:15;97927.06;;;22.08;60.20
56414;BME280;42318;48.452;19.526;2023-07-30T20:14:16;97931.97;;;22.11;60.54
56414;BME280;42318;48.452;19.526;2023-07-30T20:19:17;97948.34;;;22.11;60.25
56414;BME280;42318;48.452;19.526;2023-07-30T20:24:17;97952.94;;;22.11;60.47
56414;BME280;42318;48.452;19.526;2023-07-30T20:29:18;97954.34;;;22.08;60.31
56414;BME280;42318;48.452;19.526;2023-07-30T20:34:20;97960.31;;;22.10;60.35
56414;BME280;42318;48.452;19.526;2023-07-30T20:39:21;97958.69;;;22.09;60.05
56414;BME280;42318;48.452;19.526;2023-07-30T20:44:22;97969.59;;;22.09;60.21
56414;BME280;42318;48.452;19.526;2023-07-30T20:49:22;97955.44;;;22.07;60.17
56414;BME280;42318;48.452;19.526;2023-07-30T20:54:23;97958.69;;;22.09;60.52
56414;BME280;42318;48.452;19.526;2023-07-30T20:59:25;97968.78;;;22.09;60.40
56414;BME280;42318;48.452;19.526;2023-07-30T21:04:25;97979.69;;;22.09;60.22
56414;BME280;42318;48.452;19.526;2023-07-30T21:09:27;97982.72;;;22.07;60.30
56414;BME280;42318;48.452;19.526;2023-07-30T21:14:27;97981.91;;;22.07;60.35
56414;BME280;42318;48.452;19.526;2023-07-30T21:19:28;97984.91;;;22.05;60.12
56414;BME280;42318;48.452;19.526;2023-07-30T21:24:29;97991.19;;;22.06;60.17
56414;BME280;42318;48.452;19.526;2023-07-30T21:29:30;97997.44;;;22.06;60.39
56414;BME280;42318;48.452;19.526;2023-07-30T21:34:30;98002.91;;;22.06;60.21
56414;BME280;42318;48.452;19.526;2023-07-30T21:39:31;97999.38;;;22.06;60.17
56414;BME280;42318;48.452;19.526;2023-07-30T21:44:32;97995.81;;;22.05;60.01
56414;BME280;42318;48.452;19.526;2023-07-30T21:49:34;98009.19;;;22.02;59.97
56414;BME280;42318;48.452;19.526;2023-07-30T21:54:34;98007.25;;;22.02;60.05
56414;BME280;42318;48.452;19.526;2023-07-30T21:59:35;98012.19;;;22.05;60.05
56414;BME280;42318;48.452;19.526;2023-07-30T22:04:36;98010.56;;;22.04;60.24
56414;BME280;42318;48.452;19.526;2023-07-30T22:09:40;97998.00;;;22.03;60.05
56414;BME280;42318;48.452;19.526;2023-07-30T22:14:41;98005.09;;;22.04;60.03
56414;BME280;42318;48.452;19.526;2023-07-30T22:19:42;97991.72;;;22.03;59.97
56414;BME280;42318;48.452;19.526;2023-07-30T22:24:42;97998.25;;;22.02;60.46
56414;BME280;42318;48.452;19.526;2023-07-30T22:29:43;97992.81;;;22.02;60.11
56414;BME280;42318;48.452;19.526;2023-07-30T22:34:45;98001.00;;;22.02;60.33
56414;BME280;42318;48.452;19.526;2023-07-30T22:39:46;97982.47;;;21.99;60.34
56414;BME280;42318;48.452;19.526;2023-07-30T22:44:47;97987.63;;;22.00;60.02
56414;BME280;42318;48.452;19.526;2023-07-30T22:49:48;97984.91;;;22.00;60.25
56414;BME280;42318;48.452;19.526;2023-07-30T22:54:49;97982.19;;;22.00;60.08
56414;BME280;42318;48.452;19.526;2023-07-30T22:59:50;97990.66;;;21.99;59.92
56414;BME280;42318;48.452;19.526;2023-07-30T23:04:51;97981.38;;;22.00;60.40
56414;BME280;42318;48.452;19.526;2023-07-30T23:09:51;97984.09;;;22.00;60.00
56414;BME280;42318;48.452;19.526;2023-07-30T23:14:52;97974.28;;;21.99;60.22
56414;BME280;42318;48.452;19.526;2023-07-30T23:19:53;97970.72;;;21.98;59.97
56414;BME280;42318;48.452;19.526;2023-07-30T23:24:54;97971.53;;;21.99;60.01
56414;BME280;42318;48.452;19.526;2023-07-30T23:29:54;97968.00;;;21.98;60.07
56414;BME280;42318;48.452;19.526;2023-07-30T23:34:55;97955.47;;;21.97;59.89
56414;BME280;42318;48.452;19.526;2023-07-30T23:39:56;97958.19;;;21.97;60.17
56414;BME280;42318;48.452;19.526;2023-07-30T23:44:56;97960.91;;;21.97;60.25
56414;BME280;42318;48.452;19.526;2023-07-30T23:49:57;97960.66;;;21.93;59.93
56414;BME280;42318;48.452;19.526;2023-07-30T23:54:58;97954.41;;;21.93;60.32
56414;BME280;42318;48.452;19.526;2023-07-30T23:59:59;97954.94;;;21.95;60.21
